Time;durP1;ratioP1;P1;durP2;ratioP2;P2;SDS_P1;SDS_P2;PMS_P1;PMS_P2;Temp;Humidity;BMP_temperature;BMP_pressure;BME280_temperature;BME280_humidity;BME280_pressure;Samples;Min_cycle;Max_cycle;Signal;HPM_P1;HPM_P2
2021/05/30 00:01:02;;;;;;;12.20;10.65;;;11.10;99.90;;;;;;5016377;28;20033;-73
2021/05/30 00:03:27;;;;;;;13.07;10.93;;;11.00;99.90;;;;;;5017148;28;20084;-72
2021/05/30 00:05:53;;;;;;;14.30;12.90;;;11.00;99.90;;;;;;5017484;28;20037;-73
2021/05/30 00:08:18;;;;;;;16.60;12.35;;;10.90;99.90;;;;;;5016689;28;20053;-72
2021/05/30 00:10:44;;;;;;;13.63;11.25;;;10.90;99.90;;;;;;5016036;28;20033;-72
2021/05/30 00:13:11;;;;;;;10.82;8.52;;;10.90;99.90;;;;;;5016198;28;20030;-72
2021/05/30 00:15:37;;;;;;;8.25;7.40;;;11.00;99.90;;;;;;5017890;28;20022;-72
2021/05/30 00:18:03;;;;;;;11.98;10.38;;;10.90;99.90;;;;;;5016555;28;20033;-72
2021/05/30 00:20:29;;;;;;;10.55;9.45;;;10.90;99.90;;;;;;5016657;28;20101;-72
2021/05/30 00:22:55;;;;;;;15.75;13.43;;;10.80;99.90;;;;;;5018107;28;20037;-71
2021/05/30 00:25:20;;;;;;;10.48;9.02;;;10.80;99.90;;;;;;5020922;28;20053;-74
2021/05/30 00:27:46;;;;;;;14.55;12.90;;;10.80;99.90;;;;;;5018950;28;20490;-73
2021/05/30 00:30:12;;;;;;;15.90;12.05;;;10.70;99.90;;;;;;5017022;28;20478;-72
2021/05/30 00:32:38;;;;;;;13.45;12.15;;;10.70;99.90;;;;;;5016721;28;20068;-72
2021/05/30 00:35:04;;;;;;;14.05;10.00;;;10.60;99.90;;;;;;5016355;28;20482;-72
2021/05/30 00:37:30;;;;;;;10.35;8.60;;;10.70;99.90;;;;;;5017400;28;20026;-72
2021/05/30 00:39:55;;;;;;;8.23;7.43;;;10.60;99.90;;;;;;5015213;28;20095;-72
2021/05/30 00:42:21;;;;;;;6.13;5.53;;;10.60;99.90;;;;;;5021618;28;20034;-73
2021/05/30 00:44:47;;;;;;;6.35;5.28;;;10.60;99.90;;;;;;5019188;28;20081;-72
2021/05/30 00:47:12;;;;;;;9.13;8.20;;;10.60;99.90;;;;;;5030912;28;20034;-72
2021/05/30 00:49:38;;;;;;;8.75;6.70;;;10.50;99.90;;;;;;5015386;28;20112;-73
2021/05/30 00:52:05;;;;;;;10.05;7.88;;;10.50;99.90;;;;;;5015985;28;20030;-72
2021/05/30 00:54:31;;;;;;;8.45;7.40;;;10.50;99.90;;;;;;5015373;28;20092;-72
2021/05/30 00:56:57;;;;;;;12.05;9.88;;;10.40;99.90;;;;;;5014730;28;20491;-73
2021/05/30 00:59:23;;;;;;;10.93;8.35;;;10.40;99.90;;;;;;5018204;28;20030;-74
2021/05/30 01:01:49;;;;;;;9.07;7.05;;;10.30;99.90;;;;;;5015893;28;20068;-73
2021/05/30 01:04:14;;;;;;;6.70;6.10;;;10.30;99.90;;;;;;5015193;28;20053;-72
2021/05/30 01:06:41;;;;;;;6.82;6.13;;;10.30;99.90;;;;;;5015492;28;20022;-72
2021/05/30 01:09:07;;;;;;;9.32;6.28;;;10.30;99.90;;;;;;5019932;28;20022;-71
2021/05/30 01:11:34;;;;;;;5.68;4.60;;;10.30;99.90;;;;;;5026197;28;20038;-72
2021/05/30 01:14:01;;;;;;;5.30;4.55;;;10.30;99.90;;;;;;5025583;28;20026;-71
2021/05/30 01:16:28;;;;;;;5.38;3.58;;;10.20;99.90;;;;;;5025497;28;20025;-72
2021/05/30 01:18:57;;;;;;;4.75;3.42;;;10.20;99.90;;;;;;5026144;28;20478;-73
2021/05/30 01:21:27;;;;;;;4.50;4.05;;;10.20;99.90;;;;;;5018454;28;20478;-72
2021/05/30 01:23:54;;;;;;;3.40;3.10;;;10.20;99.90;;;;;;5017455;28;20028;-72
2021/05/30 01:26:20;;;;;;;6.15;4.22;;;10.20;99.90;;;;;;5016118;28;20371;-72
2021/05/30 01:28:46;;;;;;;6.15;4.53;;;10.10;99.90;;;;;;5031371;28;20495;-74
2021/05/30 01:31:12;;;;;;;7.18;5.22;;;10.10;99.90;;;;;;5016543;28;20092;-72
2021/05/30 01:33:38;;;;;;;5.40;4.90;;;10.10;99.90;;;;;;5015668;28;20053;-72
2021/05/30 01:36:04;;;;;;;5.28;4.85;;;10.10;99.90;;;;;;5015163;28;20025;-73
2021/05/30 01:38:30;;;;;;;4.95;3.95;;;10.10;99.90;;;;;;5026721;28;20026;-73
2021/05/30 01:40:56;;;;;;;5.72;4.95;;;10.10;99.90;;;;;;5035054;28;20057;-72
2021/05/30 01:43:21;;;;;;;8.10;5.43;;;10.10;99.90;;;;;;5028664;28;20030;-72
2021/05/30 01:45:47;;;;;;;6.10;4.75;;;10.10;99.90;;;;;;5025913;28;20044;-71
2021/05/30 01:48:12;;;;;;;8.00;6.50;;;10.10;99.90;;;;;;5027209;28;20034;-73
2021/05/30 01:50:38;;;;;;;9.55;8.18;;;10.20;99.90;;;;;;5023016;28;20077;-72
2021/05/30 01:53:10;;;;;;;13.13;9.82;;;10.20;99.90;;;;;;5015376;28;20032;-72
2021/05/30 01:55:47;;;;;;;8.75;7.50;;;10.20;99.90;;;;;;5014561;28;20482;-72
2021/05/30 01:58:14;;;;;;;13.15;6.60;;;10.10;99.90;;;;;;5013940;28;20445;-71
2021/05/30 02:00:40;;;;;;;10.50;8.10;;;10.10;99.90;;;;;;5015374;28;20441;-70
2021/05/30 02:03:07;;;;;;;7.28;6.57;;;10.00;99.90;;;;;;5014084;28;20026;-70
2021/05/30 02:05:34;;;;;;;6.60;5.97;;;10.00;99.90;;;;;;5032880;28;20037;-71
2021/05/30 02:08:00;;;;;;;6.88;5.25;;;9.90;99.90;;;;;;5014500;28;20120;-71
2021/05/30 02:10:25;;;;;;;7.18;5.55;;;10.00;99.90;;;;;;5015930;28;20037;-71
2021/05/30 02:12:53;;;;;;;5.35;4.85;;;10.00;99.90;;;;;;5015042;28;20440;-70
2021/05/30 02:15:20;;;;;;;6.90;5.25;;;9.90;99.90;;;;;;5015404;28;20079;-71
2021/05/30 02:17:46;;;;;;;5.55;5.03;;;9.90;99.90;;;;;;5015120;28;20022;-71
2021/05/30 02:20:13;;;;;;;6.18;5.55;;;9.90;1.00;;;;;;5013834;28;20022;-71
2021/05/30 02:22:39;;;;;;;5.50;5.00;;;9.90;1.00;;;;;;5014614;28;20041;-71
2021/05/30 02:25:08;;;;;;;6.72;5.78;;;9.80;1.00;;;;;;5013941;28;20026;-70
2021/05/30 02:27:34;;;;;;;7.15;6.03;;;9.80;1.00;;;;;;5016901;28;20030;-70
2021/05/30 02:29:59;;;;;;;11.52;6.93;;;9.80;1.00;;;;;;5015109;28;20026;-70
2021/05/30 02:32:25;;;;;;;7.22;5.97;;;9.70;1.00;;;;;;5030907;28;20030;-71
2021/05/30 02:34:51;;;;;;;9.52;6.43;;;9.70;1.00;;;;;;5015261;28;20037;-70
2021/05/30 02:37:18;;;;;;;8.63;7.72;;;9.70;1.00;;;;;;5030421;28;20394;-71
2021/05/30 02:39:45;;;;;;;9.95;7.93;;;9.70;1.00;;;;;;5014767;28;20481;-70
2021/05/30 02:42:11;;;;;;;7.45;6.82;;;9.60;1.00;;;;;;5015409;28;20034;-70
2021/05/30 02:44:38;;;;;;;6.05;5.55;;;9.60;1.00;;;;;;5015568;28;20115;-71
2021/05/30 02:47:04;;;;;;;4.50;4.10;;;9.60;1.00;;;;;;5021838;28;20037;-70
2021/05/30 02:49:30;;;;;;;4.45;4.05;;;9.60;1.00;;;;;;5020336;28;20030;-72
2021/05/30 02:51:56;;;;;;;5.45;4.85;;;9.50;1.00;;;;;;5015556;28;20048;-72
2021/05/30 02:54:22;;;;;;;4.40;4.00;;;9.50;1.00;;;;;;5017311;28;20022;-70
2021/05/30 02:56:48;;;;;;;5.75;3.38;;;9.50;1.00;;;;;;5018797;28;20076;-70
2021/05/30 02:59:13;;;;;;;3.90;3.55;;;9.60;1.00;;;;;;5016609;28;20038;-70
2021/05/30 03:01:39;;;;;;;5.95;3.92;;;9.60;1.00;;;;;;5012949;28;20410;-71
2021/05/30 03:04:05;;;;;;;5.72;4.30;;;9.60;1.00;;;;;;5018080;28;20033;-71
2021/05/30 03:06:31;;;;;;;5.82;3.35;;;9.60;1.00;;;;;;5018098;28;20383;-71
2021/05/30 03:08:58;;;;;;;6.45;3.70;;;9.70;1.00;;;;;;5017543;28;20537;-71
2021/05/30 03:11:25;;;;;;;4.78;3.10;;;9.60;1.00;;;;;;5020880;28;20078;-71
2021/05/30 03:13:50;;;;;;;3.80;3.50;;;9.60;1.00;;;;;;5021162;28;20037;-70
2021/05/30 03:16:16;;;;;;;4.25;3.70;;;9.70;1.00;;;;;;5018856;28;20536;-70
2021/05/30 03:18:42;;;;;;;4.07;3.50;;;9.70;1.00;;;;;;5015840;28;20058;-70
2021/05/30 03:21:08;;;;;;;4.50;3.65;;;9.60;1.00;;;;;;5017661;28;20494;-70
2021/05/30 03:23:33;;;;;;;5.00;3.95;;;9.70;1.00;;;;;;5016795;28;20064;-71
2021/05/30 03:25:59;;;;;;;6.20;4.35;;;9.60;1.00;;;;;;5016989;28;20037;-71
2021/05/30 03:28:25;;;;;;;4.95;3.70;;;9.60;1.00;;;;;;5016249;28;20026;-71
2021/05/30 03:30:50;;;;;;;5.53;3.33;;;9.60;1.00;;;;;;5016285;28;20442;-71
2021/05/30 03:33:16;;;;;;;4.60;3.53;;;9.50;1.00;;;;;;5016067;28;20029;-71
2021/05/30 03:35:44;;;;;;;4.95;3.30;;;9.60;1.00;;;;;;5015821;28;20518;-71
2021/05/30 03:38:11;;;;;;;6.22;3.45;;;9.60;1.00;;;;;;5015950;28;20022;-71
2021/05/30 03:43:09;;;;;;;6.05;3.53;;;10.00;99.90;;;;;;5020643;28;20057;-71
2021/05/30 03:45:34;;;;;;;6.18;3.30;;;10.20;99.90;;;;;;5032453;28;20499;-71
2021/05/30 03:48:00;;;;;;;4.18;3.38;;;10.30;99.90;;;;;;5014522;28;20030;-70
2021/05/30 03:50:27;;;;;;;3.90;3.55;;;10.30;99.90;;;;;;5015484;28;20030;-71
2021/05/30 03:52:52;;;;;;;3.97;3.00;;;10.40;99.90;;;;;;5015838;28;20030;-70
2021/05/30 03:55:19;;;;;;;4.32;3.90;;;10.50;99.90;;;;;;5015776;28;20026;-70
2021/05/30 03:57:45;;;;;;;8.95;4.50;;;10.50;99.90;;;;;;5030302;28;20025;-71
2021/05/30 04:00:14;;;;;;;5.78;3.97;;;10.60;99.90;;;;;;5014972;28;20034;-70
2021/05/30 04:02:40;;;;;;;3.53;3.20;;;10.70;99.90;;;;;;5015581;28;20054;-70
2021/05/30 04:05:05;;;;;;;6.10;3.65;;;10.90;99.90;;;;;;5017017;28;20033;-71
2021/05/30 04:07:33;;;;;;;5.38;3.33;;;11.00;99.90;;;;;;5015571;28;20030;-71
2021/05/30 04:10:03;;;;;;;3.90;3.25;;;11.10;99.90;;;;;;5014391;28;20037;-70
2021/05/30 04:12:29;;;;;;;2.88;2.38;;;11.40;99.90;;;;;;5015204;28;20383;-71
2021/05/30 04:14:55;;;;;;;3.47;3.00;;;11.70;99.90;;;;;;5015276;28;20037;-71
2021/05/30 04:17:21;;;;;;;7.07;4.05;;;11.90;99.90;;;;;;5013798;28;20025;-71
2021/05/30 04:19:46;;;;;;;3.55;3.10;;;11.90;99.90;;;;;;5014078;28;20077;-71
2021/05/30 04:22:12;;;;;;;4.60;3.20;;;11.90;99.90;;;;;;5016398;28;20033;-71
2021/05/30 04:24:38;;;;;;;4.50;3.78;;;12.00;99.90;;;;;;5016778;28;20061;-71
2021/05/30 04:27:03;;;;;;;4.60;3.45;;;12.30;99.90;;;;;;5031871;28;20048;-69
2021/05/30 04:29:29;;;;;;;3.38;3.08;;;12.50;99.90;;;;;;5038041;28;20054;-69
2021/05/30 04:31:55;;;;;;;3.97;2.88;;;12.70;99.90;;;;;;5037242;28;20038;-71
2021/05/30 04:34:20;;;;;;;5.03;3.03;;;12.90;99.90;;;;;;5037530;28;20029;-70
2021/05/30 04:36:46;;;;;;;5.75;3.25;;;13.10;95.50;;;;;;5038280;28;20036;-70
2021/05/30 04:39:12;;;;;;;3.15;2.40;;;13.50;1.00;;;;;;5037426;28;20041;-72
2021/05/30 04:41:37;;;;;;;7.32;2.90;;;13.60;99.90;;;;;;5037745;28;20049;-69
2021/05/30 04:44:03;;;;;;;8.13;3.63;;;13.80;99.90;;;;;;5038656;28;20017;-68
2021/05/30 04:46:28;;;;;;;3.70;2.55;;;14.00;99.90;;;;;;5038603;28;20029;-70
2021/05/30 04:48:54;;;;;;;4.95;2.53;;;14.90;80.20;;;;;;5038542;28;20093;-68
2021/05/30 04:51:20;;;;;;;5.65;2.90;;;15.20;1.00;;;;;;5036929;28;20057;-71
2021/05/30 04:53:46;;;;;;;5.65;3.03;;;15.00;99.90;;;;;;5035401;28;20044;-70
2021/05/30 04:56:18;;;;;;;3.30;3.00;;;15.60;91.00;;;;;;5037887;28;20057;-71
2021/05/30 04:58:43;;;;;;;5.80;2.67;;;16.70;99.90;;;;;;5030397;28;20037;-71
2021/05/30 05:01:09;;;;;;;3.17;2.88;;;17.20;99.90;;;;;;5016684;28;20034;-70
2021/05/30 05:03:35;;;;;;;3.20;2.45;;;17.20;1.00;;;;;;5016260;28;20104;-70
2021/05/30 05:06:01;;;;;;;3.65;2.80;;;18.20;92.00;;;;;;5022187;28;20053;-70
2021/05/30 05:08:27;;;;;;;4.55;2.38;;;19.00;1.00;;;;;;5022760;28;20141;-70
2021/05/30 05:10:53;;;;;;;3.30;2.72;;;18.70;1.00;;;;;;5015531;28;20289;-71
2021/05/30 05:13:19;;;;;;;2.80;2.60;;;18.70;1.00;;;;;;5014620;28;20478;-73
2021/05/30 05:15:51;;;;;;;5.63;2.88;;;19.40;99.90;;;;;;5015180;28;20037;-71
2021/05/30 05:18:19;;;;;;;2.40;2.20;;;20.00;99.90;;;;;;5015755;28;20034;-71
2021/05/30 05:20:46;;;;;;;3.97;2.30;;;19.70;99.90;;;;;;5015173;28;20030;-71
2021/05/30 05:23:17;;;;;;;3.22;2.70;;;19.00;99.90;;;;;;5014553;28;20495;-70
2021/05/30 05:25:42;;;;;;;3.00;2.80;;;19.10;99.90;;;;;;5016907;28;20080;-71
2021/05/30 05:28:09;;;;;;;4.43;2.90;;;19.30;99.90;;;;;;5020077;28;20025;-71
2021/05/30 05:30:35;;;;;;;3.45;2.80;;;18.50;99.90;;;;;;5015401;28;20022;-72
2021/05/30 05:33:02;;;;;;;3.90;2.95;;;18.90;99.90;;;;;;5014692;28;20380;-71
2021/05/30 05:35:28;;;;;;;3.00;2.65;;;19.80;99.90;;;;;;5017043;28;20078;-71
2021/05/30 05:37:55;;;;;;;3.30;2.97;;;20.10;99.90;;;;;;5020102;28;20022;-71
2021/05/30 05:40:21;;;;;;;3.80;2.70;;;19.70;99.90;;;;;;5019392;28;20022;-73
2021/05/30 05:42:47;;;;;;;4.40;2.83;;;19.60;99.90;;;;;;5016028;28;20049;-71
2021/05/30 05:45:14;;;;;;;4.32;2.80;;;19.60;99.90;;;;;;5014207;28;20060;-73
2021/05/30 05:47:42;;;;;;;3.45;2.45;;;19.70;99.90;;;;;;5014022;28;20033;-71
2021/05/30 05:50:15;;;;;;;3.10;2.80;;;19.30;99.90;;;;;;5014054;28;20022;-71
2021/05/30 05:52:41;;;;;;;3.40;3.10;;;19.80;99.90;;;;;;5013834;28;20076;-73
2021/05/30 05:55:08;;;;;;;2.83;2.60;;;20.00;99.90;;;;;;5013645;28;20025;-71
2021/05/30 05:57:34;;;;;;;5.25;3.15;;;20.30;99.90;;;;;;5013905;28;20045;-72
2021/05/30 06:00:00;;;;;;;2.63;2.42;;;20.10;99.90;;;;;;5013800;28;20041;-71
2021/05/30 06:02:26;;;;;;;2.80;2.55;;;20.10;99.90;;;;;;5013941;28;20035;-71
2021/05/30 06:04:52;;;;;;;4.93;3.53;;;19.30;99.90;;;;;;5013833;28;20032;-71
2021/05/30 06:07:17;;;;;;;3.33;2.88;;;19.80;99.90;;;;;;5013198;28;20022;-72
2021/05/30 06:09:43;;;;;;;2.85;2.50;;;19.90;99.90;;;;;;5013105;28;20030;-71
2021/05/30 06:12:09;;;;;;;5.05;2.72;;;19.70;99.90;;;;;;5013213;28;20030;-69
2021/05/30 06:14:35;;;;;;;3.33;3.03;;;19.50;99.90;;;;;;5016285;28;20036;-71
2021/05/30 06:17:02;;;;;;;5.57;2.72;;;19.20;99.90;;;;;;5016541;28;20056;-71
2021/05/30 06:19:28;;;;;;;3.30;2.80;;;19.10;99.90;;;;;;5015615;28;20557;-71
2021/05/30 06:21:54;;;;;;;3.50;3.20;;;18.50;99.90;;;;;;5013966;28;20038;-72
2021/05/30 06:24:19;;;;;;;4.20;3.78;;;17.60;99.90;;;;;;5012330;28;20022;-73
2021/05/30 06:26:45;;;;;;;3.83;3.42;;;17.00;1.00;;;;;;5015046;28;20026;-72
2021/05/30 06:29:11;;;;;;;3.97;3.47;;;16.50;58.30;;;;;;5013717;28;20092;-71
2021/05/30 06:31:36;;;;;;;4.35;3.05;;;15.90;53.20;;;;;;5014977;28;20032;-70
2021/05/30 06:34:03;;;;;;;4.82;2.88;;;15.80;99.90;;;;;;5014095;28;20502;-71
2021/05/30 06:36:28;;;;;;;4.00;3.50;;;15.50;99.90;;;;;;5014055;28;20037;-73
2021/05/30 06:38:54;;;;;;;3.35;3.05;;;15.30;99.90;;;;;;5021928;28;20018;-71
2021/05/30 06:41:19;;;;;;;3.72;2.70;;;15.30;99.90;;;;;;5027484;28;20022;-70
2021/05/30 06:43:46;;;;;;;3.35;3.03;;;15.40;99.90;;;;;;5027917;28;20026;-71
2021/05/30 06:46:12;;;;;;;4.32;3.78;;;15.40;99.90;;;;;;5021982;28;20397;-71
2021/05/30 06:48:37;;;;;;;3.25;2.95;;;15.50;99.90;;;;;;5018956;28;20036;-72
2021/05/30 06:51:13;;;;;;;4.50;3.45;;;15.60;99.90;;;;;;5022808;28;20018;-71
2021/05/30 06:53:39;;;;;;;3.55;3.25;;;15.60;99.90;;;;;;5022496;28;20061;-72
2021/05/30 06:56:05;;;;;;;3.75;3.33;;;15.70;99.90;;;;;;5020676;28;20026;-71
2021/05/30 06:58:30;;;;;;;3.80;3.03;;;15.70;99.90;;;;;;5017544;28;20014;-70
2021/05/30 07:00:56;;;;;;;3.80;3.00;;;15.80;99.90;;;;;;5018559;28;20033;-71
2021/05/30 07:03:22;;;;;;;3.33;2.88;;;15.90;99.90;;;;;;5016521;28;20022;-71
2021/05/30 07:05:47;;;;;;;3.63;3.05;;;16.10;75.70;;;;;;5018234;28;20149;-70
2021/05/30 07:08:13;;;;;;;3.35;2.33;;;16.10;73.70;;;;;;5016053;28;20486;-71
2021/05/30 07:10:38;;;;;;;2.90;2.50;;;16.20;59.90;;;;;;5019501;28;20089;-70
2021/05/30 07:13:04;;;;;;;4.85;3.00;;;16.30;44.90;;;;;;5017227;28;20084;-71
2021/05/30 07:15:30;;;;;;;2.90;2.70;;;16.30;33.40;;;;;;5017013;28;20032;-71
2021/05/30 07:17:56;;;;;;;2.80;2.60;;;16.30;32.40;;;;;;5016970;28;20058;-72
2021/05/30 07:20:21;;;;;;;3.95;2.70;;;16.40;25.10;;;;;;5031976;28;20300;-71
2021/05/30 07:22:47;;;;;;;4.30;2.45;;;16.50;17.40;;;;;;5016819;28;20104;-71
2021/05/30 07:25:13;;;;;;;3.38;3.00;;;16.60;15.20;;;;;;5022270;28;20038;-71
2021/05/30 07:27:39;;;;;;;3.28;3.00;;;16.50;7.80;;;;;;5026376;28;20029;-72
2021/05/30 07:30:06;;;;;;;4.80;2.88;;;16.40;8.80;;;;;;5018193;28;20091;-71
2021/05/30 07:32:32;;;;;;;3.42;2.78;;;16.60;1.00;;;;;;5016831;28;20022;-72
2021/05/30 07:34:58;;;;;;;2.83;2.50;;;16.60;1.00;;;;;;5017063;28;20104;-72
2021/05/30 07:37:24;;;;;;;2.35;1.95;;;16.90;1.00;;;;;;5015611;28;20022;-71
2021/05/30 07:39:49;;;;;;;6.00;2.33;;;17.10;1.00;;;;;;5016845;28;20022;-71
2021/05/30 07:42:15;;;;;;;2.38;2.13;;;17.10;1.00;;;;;;5017705;28;20037;-72
2021/05/30 07:44:41;;;;;;;2.70;2.50;;;17.20;1.00;;;;;;5017817;28;20036;-71
2021/05/30 07:47:07;;;;;;;2.78;2.35;;;17.30;1.00;;;;;;5019936;28;20052;-71
2021/05/30 07:49:32;;;;;;;3.08;2.53;;;17.40;1.00;;;;;;5019551;28;20033;-71
2021/05/30 07:51:59;;;;;;;3.55;2.20;;;17.30;1.00;;;;;;5016863;28;20327;-71
2021/05/30 07:54:25;;;;;;;2.58;2.38;;;17.20;1.00;;;;;;5015118;28;20425;-72
2021/05/30 07:56:51;;;;;;;3.80;2.83;;;17.20;1.00;;;;;;5016434;28;20553;-69
2021/05/30 07:59:17;;;;;;;2.53;2.33;;;17.20;1.00;;;;;;5037948;23;20078;-70
2021/05/30 08:01:43;;;;;;;3.15;2.10;;;17.30;1.00;;;;;;4996703;28;20471;-70
2021/05/30 08:04:08;;;;;;;3.00;2.53;;;17.40;1.00;;;;;;5012256;28;20037;-72
2021/05/30 08:06:34;;;;;;;3.05;2.15;;;17.40;1.00;;;;;;4996951;28;20110;-70
2021/05/30 08:09:00;;;;;;;3.85;2.60;;;17.50;1.00;;;;;;4997565;28;20026;-72
2021/05/30 08:11:26;;;;;;;2.17;2.03;;;17.50;1.00;;;;;;4997136;28;20042;-71
2021/05/30 08:13:52;;;;;;;3.58;2.75;;;17.50;1.00;;;;;;4997645;28;20030;-71
2021/05/30 08:16:21;;;;;;;5.00;2.63;;;17.50;1.00;;;;;;5012263;28;20072;-71
2021/05/30 08:18:48;;;;;;;3.70;2.25;;;17.70;1.00;;;;;;4996777;28;20034;-71
2021/05/30 08:21:14;;;;;;;2.33;2.13;;;18.00;1.00;;;;;;4995604;28;20549;-71
2021/05/30 08:23:49;;;;;;;5.32;2.17;;;18.30;1.00;;;;;;4996130;28;20058;-71
2021/05/30 08:26:15;;;;;;;2.38;1.92;;;18.40;1.00;;;;;;4997094;28;20023;-71
2021/05/30 08:28:41;;;;;;;2.10;1.90;;;18.60;1.00;;;;;;4996188;28;20035;-70
2021/05/30 08:31:06;;;;;;;2.35;2.00;;;18.50;1.00;;;;;;4996975;28;20041;-72
2021/05/30 08:33:32;;;;;;;2.90;2.33;;;18.60;1.00;;;;;;4995867;28;20022;-71
2021/05/30 08:35:58;;;;;;;2.03;1.92;;;18.50;1.00;;;;;;4996992;28;20034;-73
2021/05/30 08:38:24;;;;;;;2.10;1.90;;;18.50;1.00;;;;;;4996431;28;20077;-72
2021/05/30 08:40:51;;;;;;;4.00;2.10;;;18.60;1.00;;;;;;4997907;28;20438;-71
2021/05/30 08:43:16;;;;;;;2.70;2.25;;;18.70;1.00;;;;;;4997267;28;20534;-72
2021/05/30 08:45:43;;;;;;;2.50;2.15;;;18.90;1.00;;;;;;4996846;28;20030;-71
2021/05/30 08:48:09;;;;;;;2.25;1.80;;;19.20;1.00;;;;;;4997287;28;20033;-72
2021/05/30 08:50:36;;;;;;;2.15;1.95;;;19.00;1.00;;;;;;4996855;28;20027;-72
2021/05/30 08:53:01;;;;;;;2.97;1.88;;;19.20;1.00;;;;;;4996603;28;20041;-72
2021/05/30 08:55:27;;;;;;;1.95;1.75;;;19.20;1.00;;;;;;4996752;28;20030;-71
2021/05/30 08:57:53;;;;;;;2.03;1.70;;;18.90;1.00;;;;;;4996849;28;20061;-72
2021/05/30 09:00:26;;;;;;;2.40;1.73;;;18.40;1.00;;;;;;4997420;28;20106;-71
2021/05/30 09:03:15;;;;;;;1.90;1.75;;;18.60;1.00;;;;;;4996273;28;20101;-71
2021/05/30 09:05:42;;;;;;;1.75;1.65;;;18.60;1.00;;;;;;4995869;28;20062;-71
2021/05/30 09:08:08;;;;;;;2.88;1.77;;;18.50;1.00;;;;;;4998110;28;20077;-70
2021/05/30 09:10:34;;;;;;;2.80;1.63;;;18.60;1.00;;;;;;4998178;28;20053;-70
2021/05/30 09:13:13;;;;;;;5.82;2.10;;;18.80;1.00;;;;;;4996991;28;20026;-71
2021/05/30 09:18:22;;;;;;;2.08;1.88;;;19.40;1.00;;;;;;4995878;28;20034;-71
2021/05/30 09:20:53;;;;;;;;;;;19.60;1.00;;;;;;4995396;28;20027;-72
2021/05/30 09:23:29;;;;;;;;;;;19.10;1.00;;;;;;4996433;28;20351;-71
2021/05/30 09:26:10;;;;;;;2.05;1.85;;;19.10;1.00;;;;;;4997739;28;19905;-71
2021/05/30 09:28:37;;;;;;;2.38;1.88;;;18.60;1.00;;;;;;4995796;28;20436;-73
2021/05/30 09:31:04;;;;;;;2.88;1.60;;;18.60;1.00;;;;;;4996148;28;20023;-71
2021/05/30 09:33:34;;;;;;;2.13;1.92;;;18.60;1.00;;;;;;4995832;28;20040;-71
2021/05/30 09:36:03;;;;;;;1.70;1.60;;;18.80;1.00;;;;;;4996082;28;20030;-72
2021/05/30 09:38:35;;;;;;;2.22;2.05;;;18.80;1.00;;;;;;4995416;28;20026;-73
2021/05/30 09:41:07;;;;;;;2.10;1.90;;;18.70;1.00;;;;;;4995441;28;20105;-71
2021/05/30 09:43:36;;;;;;;2.33;2.05;;;18.90;1.00;;;;;;4994160;28;20558;-71
2021/05/30 09:46:10;;;;;;;3.25;2.13;;;19.00;1.00;;;;;;4994092;28;20037;-71
2021/05/30 09:48:57;;;;;;;2.85;1.80;;;18.90;1.00;;;;;;4993776;28;20022;-72
2021/05/30 09:51:37;;;;;;;2.22;1.85;;;18.70;1.00;;;;;;5008534;28;20022;-72
2021/05/30 09:54:14;;;;;;;2.42;2.20;;;18.50;1.00;;;;;;4992664;28;20026;-71
2021/05/30 09:56:46;;;;;;;2.10;1.90;;;18.30;1.00;;;;;;5008513;28;20026;-73
2021/05/30 09:59:17;;;;;;;2.22;1.70;;;18.40;1.00;;;;;;5000503;28;20029;-72
2021/05/30 10:01:58;;;;;;;2.05;1.80;;;18.70;1.00;;;;;;5022714;28;20030;-72
2021/05/30 10:04:27;;;;;;;1.73;1.42;;;18.60;1.00;;;;;;5005397;28;20039;-70
2021/05/30 10:06:55;;;;;;;2.08;1.88;;;18.70;1.00;;;;;;5015891;28;20032;-72
2021/05/30 10:09:21;;;;;;;2.72;1.70;;;18.80;1.00;;;;;;5000839;28;20045;-71
2021/05/30 10:11:47;;;;;;;2.63;1.92;;;18.60;1.00;;;;;;4994874;28;20030;-73
2021/05/30 10:14:12;;;;;;;3.15;1.90;;;18.70;1.00;;;;;;5008705;28;20560;-71
2021/05/30 10:16:38;;;;;;;2.50;1.50;;;18.90;1.00;;;;;;4992493;28;20052;-72
2021/05/30 10:19:36;;;;;;;3.17;2.13;;;18.90;1.00;;;;;;4995926;28;20486;-71
2021/05/30 10:22:03;;;;;;;2.03;1.80;;;18.70;1.00;;;;;;4997935;28;20057;-70
2021/05/30 10:24:30;;;;;;;2.75;1.83;;;18.70;1.00;;;;;;4997891;28;20080;-73
2021/05/30 10:27:24;;;;;;;2.90;1.77;;;19.00;1.00;;;;;;4996999;28;20052;-71
2021/05/30 10:30:08;;;;;;;1.95;1.80;;;19.00;1.00;;;;;;4995882;28;20426;-71
2021/05/30 10:32:44;;;;;;;1.52;1.42;;;19.10;1.00;;;;;;4995581;28;20030;-73
2021/05/30 10:35:24;;;;;;;1.67;1.58;;;19.50;1.00;;;;;;4996842;28;20102;-74
2021/05/30 10:37:57;;;;;;;1.90;1.70;;;20.10;1.00;;;;;;4997032;28;20026;-72
2021/05/30 10:40:22;;;;;;;2.67;1.83;;;20.30;1.00;;;;;;4997049;28;20193;-72
2021/05/30 10:43:07;;;;;;;4.82;2.80;;;20.40;1.00;;;;;;4995847;28;20026;-74
2021/05/30 10:45:37;;;;;;;2.15;1.95;;;20.60;1.00;;;;;;4996402;28;20034;-73
2021/05/30 10:48:02;;;;;;;3.80;2.30;;;20.70;1.00;;;;;;4998178;28;20494;-73
2021/05/30 10:50:39;;;;;;;2.45;1.85;;;20.70;1.00;;;;;;4998917;28;20054;-71
2021/05/30 10:53:27;;;;;;;1.90;1.67;;;20.50;1.00;;;;;;5016277;28;20090;-71
2021/05/30 10:55:53;;;;;;;1.98;1.70;;;20.50;1.00;;;;;;5013377;28;20018;-71
2021/05/30 10:58:21;;;;;;;2.33;1.73;;;20.10;1.00;;;;;;5014908;28;20048;-72
2021/05/30 11:00:47;;;;;;;2.25;1.52;;;20.20;1.00;;;;;;5011859;28;20057;-73
2021/05/30 11:03:13;;;;;;;2.42;2.10;;;20.60;1.00;;;;;;5014862;28;20479;-73
2021/05/30 11:05:50;;;;;;;1.77;1.67;;;20.70;1.00;;;;;;5015566;28;20054;-73
2021/05/30 11:08:31;;;;;;;2.05;1.67;;;20.50;1.00;;;;;;5016024;28;20051;-70
2021/05/30 11:11:22;;;;;;;2.35;1.35;;;20.30;1.00;;;;;;5015795;28;20014;-73
2021/05/30 11:13:54;;;;;;;2.33;2.15;;;20.30;1.00;;;;;;5013830;28;20102;-72
2021/05/30 11:16:30;;;;;;;3.03;1.40;;;20.50;1.00;;;;;;5015878;28;20022;-71
2021/05/30 11:19:00;;;;;;;2.92;1.63;;;20.60;1.00;;;;;;5014511;28;20084;-73
2021/05/30 11:21:47;;;;;;;2.08;1.88;;;20.60;1.00;;;;;;5015535;28;20022;-73
2021/05/30 11:24:20;;;;;;;3.03;1.58;;;20.80;1.00;;;;;;5015569;28;20117;-70
2021/05/30 11:26:56;;;;;;;2.17;2.00;;;20.80;1.00;;;;;;5014886;28;20037;-71
2021/05/30 11:29:23;;;;;;;3.03;1.60;;;20.80;1.00;;;;;;5014208;28;20102;-72
2021/05/30 11:31:49;;;;;;;3.10;1.70;;;20.70;1.00;;;;;;5015701;28;20039;-72
2021/05/30 11:34:15;;;;;;;1.95;1.50;;;20.70;1.00;;;;;;5010139;28;20030;-72
2021/05/30 11:36:40;;;;;;;3.97;1.38;;;21.00;1.00;;;;;;5011131;28;20029;-71
2021/05/30 11:39:08;;;;;;;2.00;1.70;;;20.80;1.00;;;;;;4999649;28;20030;-74
2021/05/30 11:41:35;;;;;;;2.05;1.88;;;20.90;1.00;;;;;;4998449;28;20149;-73
2021/05/30 11:44:12;;;;;;;2.60;1.80;;;21.00;1.00;;;;;;4997812;28;20435;-71
2021/05/30 11:46:41;;;;;;;2.50;2.17;;;20.90;1.00;;;;;;4997998;28;20030;-72
2021/05/30 11:49:11;;;;;;;3.45;1.80;;;20.40;1.00;;;;;;4997455;28;20514;-72
2021/05/30 11:51:48;;;;;;;4.43;2.60;;;19.80;1.00;;;;;;4997539;28;20030;-71
2021/05/30 11:54:14;;;;;;;1.80;1.33;;;20.10;1.00;;;;;;5012940;28;20107;-73
2021/05/30 11:56:41;;;;;;;2.42;1.40;;;20.20;1.00;;;;;;5011088;28;20027;-72
2021/05/30 11:59:08;;;;;;;1.63;1.40;;;20.20;1.00;;;;;;5013311;28;20061;-71
2021/05/30 12:01:50;;;;;;;1.52;1.40;;;20.20;1.00;;;;;;5013915;28;20034;-72
2021/05/30 12:04:26;;;;;;;1.60;1.50;;;20.40;1.00;;;;;;5015817;28;20038;-71
2021/05/30 12:06:53;;;;;;;2.10;1.70;;;19.90;1.00;;;;;;5015415;28;20418;-71
2021/05/30 12:09:20;;;;;;;1.98;1.75;;;20.00;1.00;;;;;;5015557;28;20022;-69
2021/05/30 12:11:46;;;;;;;3.08;2.35;;;20.00;1.00;;;;;;5015429;28;20014;-70
2021/05/30 12:14:11;;;;;;;2.13;1.50;;;20.30;1.00;;;;;;5015660;28;20018;-73
2021/05/30 12:16:37;;;;;;;2.08;1.60;;;20.00;1.00;;;;;;5016001;28;20049;-72
2021/05/30 12:19:04;;;;;;;2.15;1.85;;;20.00;1.00;;;;;;5015571;28;20030;-73
2021/05/30 12:21:43;;;;;;;2.03;1.40;;;20.00;1.00;;;;;;5014540;28;20018;-72
2021/05/30 12:24:14;;;;;;;3.13;1.50;;;20.60;1.00;;;;;;5013907;28;20240;-72
2021/05/30 12:26:42;;;;;;;3.17;1.58;;;20.70;1.00;;;;;;5008442;28;20577;-71
2021/05/30 12:29:08;;;;;;;3.30;1.55;;;20.60;1.00;;;;;;5001953;28;20049;-73
2021/05/30 12:31:34;;;;;;;4.15;2.30;;;20.80;1.00;;;;;;4998684;28;20423;-75
2021/05/30 12:34:06;;;;;;;1.88;1.65;;;20.90;1.00;;;;;;4998349;28;20305;-72
2021/05/30 12:36:45;;;;;;;2.50;1.70;;;20.90;1.00;;;;;;4998056;28;20029;-73
2021/05/30 12:39:25;;;;;;;3.38;1.70;;;21.10;1.00;;;;;;5000270;28;20018;-72
2021/05/30 12:42:04;;;;;;;5.88;1.77;;;21.20;1.00;;;;;;4998883;28;20565;-73
2021/05/30 12:44:40;;;;;;;2.55;1.70;;;21.30;1.00;;;;;;4999957;28;20034;-74
2021/05/30 12:47:12;;;;;;;2.25;1.52;;;21.10;1.00;;;;;;4998810;28;20033;-73
2021/05/30 12:49:39;;;;;;;2.88;1.90;;;21.10;1.00;;;;;;4997247;28;20026;-72
2021/05/30 12:52:14;;;;;;;1.40;1.30;;;21.30;1.00;;;;;;4997411;28;20046;-72
2021/05/30 12:54:41;;;;;;;1.90;1.58;;;21.50;1.00;;;;;;5000196;28;20049;-72
2021/05/30 12:57:07;;;;;;;2.13;1.90;;;21.60;1.00;;;;;;5004119;28;20026;-74
2021/05/30 12:59:46;;;;;;;2.75;2.03;;;21.50;1.00;;;;;;5000375;28;20062;-73
2021/05/30 13:02:14;;;;;;;1.65;1.55;;;21.80;1.00;;;;;;5008765;28;20037;-72